Search for airport 
image banner adimage banner adimage banner ad
image banner ad

5PA7 - Indian Sleep Farm

Located in Unionville, United States

ICAO - 5PA7, IATA -

Data provided by Airmate  

General information

Coordinates: N39°55'29" W75°41'46"
Elevation is 270 feet MSL.
Magnetic variation is -11° East
View others Airports in Pennsylvania

Operational data

Special qualification required
Current time UTC:
Current local time:
Weather at : KOQN - Brandywine ( 12 km )
METAR: KOQN 071255Z AUTO 07003KT 10SM CLR 13/00 A2992 RMK AO2
View NOTAMs / SUP AIP / TFR affecting this airport [VIEW]
Communications frequencies: [VIEW]

Runways:

Airport contact information

Address: Unionville United States

Satellite view of 5PA7